Willow Point, New York
Current Conditions -  °F | °C
As of 8:29 AM on Friday 19 Dec 2014 (Local Time) from KBGM Reporting Station
Light Snow Light Snow  
Wind Chill:   Ceiling: 800
Heat Index: 22°   Visibility: 5mi
Dew Point: 20°   Wind: 15mph
Humidity: 92%   Direction: 330°NNW
Pressure: 30.02"   Gusts: NA
Location:  42.0463°N, 76.0314°W
Report Text: KBGM 191329Z 33013KT 5SM -SN BR BKN008 OVC014 M06/M07 A3002 RMK AO2 CIG 007V011 P0000 T10561067 $
Loading
Personal Weather Stations






























Interactive Weather Map New forecast layout! Learn more

10-Day Weather Forecast

Advertisements
Track Severe Weather on mobile